CheckWX is a tool to help pilots better visualize weather data.  It is not intended as a substitute for an official pre-flight weather briefing.

10:09:46 UTC

SAVC TAF
General E. Mosconi Airport
Comodoro Rivadavia, Argentina
TAF SAVC 260500Z 2606/2706 29020G35KT CAVOK TX12/2619Z TN06/2610Z TEMPO 2606/2611 29035G45KT 8000 PO BECMG 2618/2620 27020G30KT SCT030 SCT080 BECMG 2702/2704 18017KT BKN015 BKN020 PROB30 TEMPO 2703/2706 8000 -SHSN

Jun-26@
06:00 UTC

Jun-26 @ 06:00 UTC

Jun-26@
18:00 UTC

Jun-26 @ 18:00 UTC

TAF SAVC 260500Z 2606/2706 29020G35KT CAVOK TX12/2619Z TN06/2610Z
Wind
  • 290° at 20 KTS
  • {Gusting to 35 KTS
Cloud Levels
  • No significant clouds

Jun-26@
06:00 UTC

Jun-26 @ 06:00 UTC

Jun-26@
11:00 UTC

Jun-26 @ 11:00 UTC

TEMPO 2606/2611 29035G45KT 8000 PO

Temporary

Temporary Changes expected for less than half the time period

Wind
  • 290° at 35 KTS
  • {Gusting to 45 KTS
Conditions
Well-developed dust/sand whirls

Jun-26@
18:00 UTC

Jun-26 @ 18:00 UTC

Jun-27@
02:00 UTC

Jun-27 @ 02:00 UTC

BECMG 2618/2620 27020G30KT SCT030 SCT080

Becoming

Becoming Conditions expected by Wed, Jun 26, 2019 @ 20:00 UTC

Wind
  • 270° at 20 KTS
  • {Gusting to 30 KTS
Cloud Levels
  • Scattered at 3,000' AGL
  • Scattered at 8,000' AGL

Jun-27@
02:00 UTC

Jun-27 @ 02:00 UTC

Jun-27@
06:00 UTC

Jun-27 @ 06:00 UTC

BECMG 2702/2704 18017KT BKN015 BKN020

Becoming

Becoming Conditions expected by Thu, Jun 27, 2019 @ 04:00 UTC

Wind
  • 180° at 17 KTS
Cloud Levels
  • Broken at 1,500' AGL
  • Broken at 2,000' AGL

Jun-27@
03:00 UTC

Jun-27 @ 03:00 UTC

Jun-27@
06:00 UTC

Jun-27 @ 06:00 UTC

PROB30 TEMPO 2703/2706 8000 -SHSN

Temporary - 30% Likelihood

Temporary - 30% Likelihood during this time.

Conditions
Light Snow